Time;durP1;ratioP1;P1;durP2;ratioP2;P2;SDS_P1;SDS_P2;PMS_P1;PMS_P2;Temp;Humidity;BMP_temperature;BMP_pressure;BME280_temperature;BME280_humidity;BME280_pressure;Samples;Min_cycle;Max_cycle;Signal;HPM_P1;HPM_P2
2021/09/23 00:00:11;;;;;;;25.00;18.43;;;;;;;;;;4953664;28;20816;-76
2021/09/23 00:05:09;;;;;;;20.50;18.40;;;;;;;;;;4959718;28;20524;-74
2021/09/23 00:07:34;;;;;;;22.13;19.50;;;;;;;;;;4957753;28;20451;-75
2021/09/23 00:09:59;;;;;;;22.50;19.17;;;;;;;;;;4955653;28;20190;-75
2021/09/23 00:12:25;;;;;;;23.00;18.40;;;;;;;;;;4951807;28;20249;-75
2021/09/23 00:14:50;;;;;;;22.07;18.33;;;;;;;;;;4959276;28;20254;-76
2021/09/23 00:17:15;;;;;;;27.00;20.40;;;;;;;;;;4955484;28;20285;-76
2021/09/23 00:19:41;;;;;;;22.43;19.53;;;;;;;;;;4955906;28;20277;-75
2021/09/23 00:22:06;;;;;;;23.03;19.47;;;;;;;;;;4957025;28;20186;-75
2021/09/23 00:24:31;;;;;;;26.40;19.37;;;;;;;;;;4955627;28;20197;-75
2021/09/23 00:26:56;;;;;;;22.83;19.30;;;;;;;;;;4960353;28;20179;-75
2021/09/23 00:29:22;;;;;;;28.37;22.53;;;;;;;;;;4952617;28;20191;-75
2021/09/23 00:31:47;;;;;;;23.53;20.97;;;;;;;;;;4951029;28;20190;-75
2021/09/23 00:34:12;;;;;;;30.00;21.40;;;;;;;;;;4957640;28;20225;-75
2021/09/23 00:36:38;;;;;;;29.97;22.57;;;;;;;;;;4960241;28;20250;-74
2021/09/23 00:39:03;;;;;;;26.20;22.57;;;;;;;;;;4958322;28;20614;-75
2021/09/23 00:41:28;;;;;;;26.33;22.03;;;;;;;;;;4957421;28;20186;-75
2021/09/23 00:43:53;;;;;;;27.70;22.40;;;;;;;;;;4957031;28;20214;-75
2021/09/23 00:46:19;;;;;;;29.97;21.70;;;;;;;;;;4955676;28;20837;-75
2021/09/23 00:48:49;;;;;;;27.47;21.20;;;;;;;;;;4956439;28;20200;-75
2021/09/23 00:51:16;;;;;;;28.17;22.73;;;;;;;;;;4955020;28;20187;-75
2021/09/23 00:53:41;;;;;;;30.27;24.33;;;;;;;;;;4956236;28;20458;-75
2021/09/23 00:56:06;;;;;;;28.33;22.17;;;;;;;;;;4954638;28;20874;-75
2021/09/23 00:58:32;;;;;;;29.00;23.53;;;;;;;;;;4955627;28;20207;-75
2021/09/23 01:00:57;;;;;;;32.33;25.70;;;;;;;;;;4953982;28;20183;-75
2021/09/23 01:03:22;;;;;;;31.23;25.60;;;;;;;;;;4958328;28;20457;-75
2021/09/23 01:05:48;;;;;;;31.20;24.50;;;;;;;;;;4956682;28;20186;-75
2021/09/23 01:08:13;;;;;;;31.23;25.30;;;;;;;;;;4954327;28;20183;-75
2021/09/23 01:10:38;;;;;;;29.90;23.97;;;;;;;;;;4958608;28;20613;-75
2021/09/23 01:13:04;;;;;;;34.73;26.70;;;;;;;;;;4960060;28;20297;-75
2021/09/23 01:15:29;;;;;;;35.87;26.13;;;;;;;;;;4957388;28;20587;-75
2021/09/23 01:17:54;;;;;;;33.43;27.40;;;;;;;;;;4957999;28;20214;-75
2021/09/23 01:20:20;;;;;;;35.13;26.97;;;;;;;;;;4958340;28;20175;-75
2021/09/23 01:22:45;;;;;;;30.70;25.80;;;;;;;;;;4961641;28;20211;-75
2021/09/23 01:25:13;;;;;;;33.17;27.83;;;;;;;;;;4960350;28;20182;-75
2021/09/23 01:27:39;;;;;;;31.37;25.73;;;;;;;;;;4959731;28;20675;-75
2021/09/23 01:30:04;;;;;;;35.10;27.07;;;;;;;;;;4957755;28;20448;-75
2021/09/23 01:32:30;;;;;;;34.33;29.03;;;;;;;;;;4961341;28;20280;-75
2021/09/23 01:34:55;;;;;;;35.20;28.00;;;;;;;;;;4957409;28;20674;-75
2021/09/23 01:37:20;;;;;;;37.03;27.50;;;;;;;;;;4960574;28;20607;-75
2021/09/23 01:39:45;;;;;;;38.87;28.30;;;;;;;;;;4962145;28;20195;-75
2021/09/23 01:42:11;;;;;;;35.10;27.30;;;;;;;;;;4963173;28;20207;-75
2021/09/23 01:44:36;;;;;;;31.63;25.87;;;;;;;;;;4959874;28;20213;-75
2021/09/23 01:47:02;;;;;;;37.10;26.80;;;;;;;;;;4961133;28;20266;-75
2021/09/23 01:49:27;;;;;;;37.43;27.90;;;;;;;;;;4961477;28;20193;-75
2021/09/23 01:51:52;;;;;;;34.80;26.40;;;;;;;;;;4951955;28;20199;-75
2021/09/23 01:54:19;;;;;;;31.70;24.53;;;;;;;;;;4955477;28;20539;-75
2021/09/23 01:56:44;;;;;;;32.70;26.37;;;;;;;;;;4956557;28;20189;-75
2021/09/23 01:59:09;;;;;;;33.77;27.50;;;;;;;;;;4953816;28;20512;-75
2021/09/23 02:01:35;;;;;;;37.20;27.30;;;;;;;;;;4957527;28;20183;-75
2021/09/23 02:04:00;;;;;;;38.10;28.97;;;;;;;;;;4959918;28;20621;-75
2021/09/23 02:06:26;;;;;;;37.60;27.63;;;;;;;;;;4959793;28;20654;-75
2021/09/23 02:08:51;;;;;;;39.90;28.97;;;;;;;;;;4959072;28;20187;-75
2021/09/23 02:11:16;;;;;;;35.47;28.43;;;;;;;;;;4954658;28;20197;-75
2021/09/23 02:13:42;;;;;;;46.70;31.10;;;;;;;;;;4960414;28;20223;-75
2021/09/23 02:16:08;;;;;;;44.03;32.87;;;;;;;;;;4961350;28;20178;-75
2021/09/23 02:18:33;;;;;;;42.50;31.70;;;;;;;;;;4960902;28;20469;-75
2021/09/23 02:21:00;;;;;;;40.20;30.73;;;;;;;;;;4955535;28;20189;-74
2021/09/23 02:23:25;;;;;;;38.60;29.93;;;;;;;;;;4963480;28;20198;-74
2021/09/23 02:25:51;;;;;;;39.20;29.30;;;;;;;;;;4959751;28;20992;-75
2021/09/23 02:28:16;;;;;;;43.43;31.20;;;;;;;;;;4961253;28;20696;-75
2021/09/23 02:30:41;;;;;;;46.57;31.20;;;;;;;;;;4959770;28;20194;-75
2021/09/23 02:33:06;;;;;;;44.53;30.60;;;;;;;;;;4959473;28;20214;-75
2021/09/23 02:35:32;;;;;;;39.87;29.60;;;;;;;;;;4961245;28;20187;-75
2021/09/23 02:37:57;;;;;;;40.13;29.73;;;;;;;;;;4960126;28;20257;-75
2021/09/23 02:40:22;;;;;;;41.43;30.70;;;;;;;;;;4958250;28;20191;-75
2021/09/23 02:48:53;;;;;;;42.37;29.97;;;;;;;;;;4957220;28;20441;-75
2021/09/23 02:51:18;;;;;;;46.60;30.60;;;;;;;;;;4954437;28;21280;-75
2021/09/23 02:53:45;;;;;;;43.53;30.07;;;;;;;;;;4961879;28;20225;-75
2021/09/23 02:56:10;;;;;;;46.73;30.90;;;;;;;;;;4964362;28;20214;-75
2021/09/23 02:58:37;;;;;;;44.97;30.50;;;;;;;;;;4958414;28;21083;-75
2021/09/23 03:01:24;;;;;;;43.13;31.03;;;;;;;;;;4958445;28;20186;-75
2021/09/23 03:03:49;;;;;;;46.03;29.40;;;;;;;;;;4950137;28;20458;-75
2021/09/23 03:06:16;;;;;;;41.33;29.70;;;;;;;;;;4961876;28;20426;-75
2021/09/23 03:08:41;;;;;;;44.97;33.20;;;;;;;;;;4954763;28;20635;-75
2021/09/23 03:11:06;;;;;;;45.73;32.10;;;;;;;;;;4963058;28;20446;-75
2021/09/23 03:13:32;;;;;;;43.03;31.17;;;;;;;;;;4953429;28;20215;-75
2021/09/23 03:15:57;;;;;;;39.60;29.60;;;;;;;;;;4955894;28;20183;-75
2021/09/23 03:18:22;;;;;;;43.53;30.97;;;;;;;;;;4957346;28;20210;-75
2021/09/23 03:20:50;;;;;;;37.67;28.70;;;;;;;;;;4958339;28;20203;-75
2021/09/23 03:23:17;;;;;;;43.47;32.03;;;;;;;;;;4962220;28;20207;-75
2021/09/23 03:25:44;;;;;;;46.73;32.70;;;;;;;;;;4960264;28;20926;-75
2021/09/23 03:28:10;;;;;;;41.43;30.53;;;;;;;;;;5122705;23;20557;-77
2021/09/23 03:30:35;;;;;;;42.77;30.73;;;;;;;;;;4954116;28;20264;-75
2021/09/23 03:33:04;;;;;;;43.93;30.20;;;;;;;;;;4956364;28;20225;-75
2021/09/23 03:35:30;;;;;;;40.80;30.60;;;;;;;;;;4961224;28;20562;-75
2021/09/23 03:37:55;;;;;;;37.77;28.83;;;;;;;;;;4959757;28;20473;-76
2021/09/23 03:40:20;;;;;;;40.70;30.50;;;;;;;;;;4957863;28;20183;-76
2021/09/23 03:42:46;;;;;;;42.13;30.60;;;;;;;;;;4957414;28;20927;-75
2021/09/23 03:45:11;;;;;;;43.30;30.10;;;;;;;;;;4959801;28;20561;-75
2021/09/23 03:47:37;;;;;;;43.93;31.80;;;;;;;;;;4958648;28;20297;-75
2021/09/23 03:50:03;;;;;;;40.30;29.60;;;;;;;;;;4960132;28;20185;-75
2021/09/23 03:52:28;;;;;;;44.80;31.60;;;;;;;;;;4958128;28;20725;-75
2021/09/23 03:54:54;;;;;;;50.23;28.83;;;;;;;;;;4954117;28;20430;-74
2021/09/23 03:57:19;;;;;;;39.33;30.87;;;;;;;;;;4958660;28;20174;-75
2021/09/23 03:59:46;;;;;;;42.07;31.43;;;;;;;;;;4957389;28;20218;-75
2021/09/23 04:02:11;;;;;;;39.73;28.43;;;;;;;;;;4960407;28;20556;-75
2021/09/23 04:04:37;;;;;;;41.97;28.97;;;;;;;;;;4957676;28;20434;-76
2021/09/23 04:07:04;;;;;;;39.60;28.90;;;;;;;;;;4952174;28;20206;-74
2021/09/23 04:09:33;;;;;;;44.17;29.67;;;;;;;;;;4956239;28;20195;-75
2021/09/23 04:11:58;;;;;;;49.03;31.50;;;;;;;;;;4958129;28;20442;-76
2021/09/23 04:14:23;;;;;;;46.93;31.93;;;;;;;;;;4959214;28;20434;-75
2021/09/23 04:16:50;;;;;;;40.63;29.70;;;;;;;;;;4956241;28;20178;-75
2021/09/23 04:19:16;;;;;;;49.27;31.40;;;;;;;;;;4956098;28;20865;-75
2021/09/23 04:21:41;;;;;;;44.17;32.80;;;;;;;;;;4956736;28;20476;-75
2021/09/23 04:24:06;;;;;;;40.53;29.80;;;;;;;;;;4958396;28;20175;-75
2021/09/23 04:26:32;;;;;;;44.10;31.70;;;;;;;;;;4958284;28;20698;-75
2021/09/23 04:28:57;;;;;;;42.47;30.20;;;;;;;;;;4955278;28;22410;-75
2021/09/23 04:31:22;;;;;;;44.97;31.57;;;;;;;;;;4956465;28;20237;-75
2021/09/23 04:33:47;;;;;;;46.03;31.50;;;;;;;;;;4956883;28;20238;-75
2021/09/23 04:36:12;;;;;;;41.63;31.47;;;;;;;;;;4957441;28;20183;-75
2021/09/23 04:38:38;;;;;;;44.87;31.27;;;;;;;;;;4957837;28;20238;-74
2021/09/23 04:41:03;;;;;;;45.90;32.10;;;;;;;;;;4961169;28;20182;-78
2021/09/23 04:43:28;;;;;;;53.97;35.40;;;;;;;;;;4960549;28;20241;-75
2021/09/23 04:45:54;;;;;;;50.17;33.30;;;;;;;;;;4955334;28;20182;-76
2021/09/23 04:48:19;;;;;;;53.00;33.00;;;;;;;;;;4960446;28;20614;-76
2021/09/23 04:50:44;;;;;;;44.70;32.17;;;;;;;;;;4959309;28;20193;-76
2021/09/23 04:53:10;;;;;;;54.00;31.90;;;;;;;;;;4956646;28;20191;-76
2021/09/23 04:55:35;;;;;;;42.67;31.17;;;;;;;;;;4954931;28;20191;-75
2021/09/23 04:58:00;;;;;;;47.93;33.00;;;;;;;;;;4951821;28;20226;-76
2021/09/23 05:00:26;;;;;;;46.30;30.60;;;;;;;;;;4951864;28;20185;-75
2021/09/23 05:02:51;;;;;;;51.50;31.63;;;;;;;;;;4957489;28;20676;-76
2021/09/23 05:05:17;;;;;;;52.03;32.63;;;;;;;;;;4955349;28;20664;-75
2021/09/23 05:07:42;;;;;;;51.97;34.87;;;;;;;;;;4953312;28;20198;-76
2021/09/23 05:10:07;;;;;;;49.90;32.10;;;;;;;;;;4959256;28;20221;-75
2021/09/23 05:12:35;;;;;;;56.83;35.67;;;;;;;;;;4947822;28;20224;-75
2021/09/23 05:15:00;;;;;;;50.80;33.23;;;;;;;;;;4954320;28;20181;-75
2021/09/23 05:17:26;;;;;;;52.70;34.30;;;;;;;;;;4942894;28;20453;-76
2021/09/23 05:19:51;;;;;;;52.60;34.77;;;;;;;;;;4951082;28;20182;-76
2021/09/23 05:22:17;;;;;;;51.70;35.03;;;;;;;;;;4951962;28;20178;-75
2021/09/23 05:24:47;;;;;;;53.00;33.63;;;;;;;;;;4955870;28;20183;-75
2021/09/23 05:27:12;;;;;;;49.23;34.17;;;;;;;;;;4952584;28;20440;-76
2021/09/23 05:29:40;;;;;;;53.23;35.27;;;;;;;;;;4954810;28;20450;-75
2021/09/23 05:32:05;;;;;;;57.00;35.60;;;;;;;;;;4952293;28;20186;-75
2021/09/23 05:34:30;;;;;;;55.77;37.87;;;;;;;;;;4958416;28;21214;-75
2021/09/23 05:36:56;;;;;;;49.33;32.37;;;;;;;;;;4958008;28;20748;-74
2021/09/23 05:39:21;;;;;;;64.97;36.03;;;;;;;;;;4956795;28;20222;-74
2021/09/23 05:41:46;;;;;;;46.40;32.83;;;;;;;;;;4956060;28;20189;-75
2021/09/23 05:44:11;;;;;;;52.33;35.20;;;;;;;;;;4957270;28;20179;-75
2021/09/23 05:46:37;;;;;;;51.10;34.20;;;;;;;;;;4954992;28;20179;-75
2021/09/23 05:49:02;;;;;;;58.00;37.53;;;;;;;;;;4956068;28;20732;-74
2021/09/23 05:51:28;;;;;;;51.60;35.30;;;;;;;;;;4956037;28;20183;-75
2021/09/23 05:53:53;;;;;;;50.03;34.67;;;;;;;;;;4955486;28;20183;-76
2021/09/23 05:56:18;;;;;;;56.90;36.57;;;;;;;;;;4964435;28;20190;-75
2021/09/23 05:58:43;;;;;;;53.97;35.97;;;;;;;;;;4961250;28;20261;-76
2021/09/23 06:01:08;;;;;;;50.17;33.27;;;;;;;;;;4957340;28;20183;-75
2021/09/23 06:03:34;;;;;;;56.87;36.73;;;;;;;;;;4959511;28;20185;-75
2021/09/23 06:05:59;;;;;;;51.77;34.83;;;;;;;;;;4958361;28;20662;-76
2021/09/23 06:08:24;;;;;;;60.13;37.00;;;;;;;;;;4958951;28;20634;-75
2021/09/23 06:10:49;;;;;;;55.37;36.30;;;;;;;;;;4958209;28;20230;-75
2021/09/23 06:13:15;;;;;;;52.20;33.73;;;;;;;;;;4954761;28;20187;-75
2021/09/23 06:15:41;;;;;;;57.77;36.63;;;;;;;;;;4955261;28;20200;-75
2021/09/23 06:18:06;;;;;;;52.90;36.43;;;;;;;;;;4956279;28;20218;-75
2021/09/23 06:20:31;;;;;;;61.37;37.50;;;;;;;;;;4959934;28;20441;-75
2021/09/23 06:22:56;;;;;;;60.90;39.17;;;;;;;;;;4962135;28;20182;-75
2021/09/23 06:25:22;;;;;;;58.47;38.23;;;;;;;;;;4960074;28;20213;-75
2021/09/23 06:27:47;;;;;;;62.97;39.73;;;;;;;;;;4958441;28;20679;-75
2021/09/23 06:30:13;;;;;;;48.30;35.97;;;;;;;;;;4959166;28;20441;-75
2021/09/23 06:32:39;;;;;;;59.00;36.20;;;;;;;;;;4951908;28;20302;-76
2021/09/23 06:35:04;;;;;;;56.87;37.30;;;;;;;;;;4945599;28;20281;-75
2021/09/23 06:37:30;;;;;;;53.13;36.47;;;;;;;;;;4961006;28;20206;-76
2021/09/23 06:39:55;;;;;;;58.47;37.63;;;;;;;;;;4961303;28;20179;-75
2021/09/23 06:42:20;;;;;;;59.83;39.70;;;;;;;;;;4962267;28;20191;-75
2021/09/23 06:44:45;;;;;;;53.93;37.10;;;;;;;;;;4955003;28;20210;-75
2021/09/23 06:47:11;;;;;;;53.97;36.70;;;;;;;;;;4957776;28;20183;-75
2021/09/23 06:49:36;;;;;;;57.83;36.60;;;;;;;;;;4958045;28;20194;-76
2021/09/23 06:52:02;;;;;;;54.50;34.83;;;;;;;;;;4950521;28;20218;-75
2021/09/23 06:54:27;;;;;;;48.07;34.70;;;;;;;;;;4954648;28;20210;-75
2021/09/23 06:56:52;;;;;;;54.47;36.77;;;;;;;;;;4953204;28;20195;-75
2021/09/23 06:59:17;;;;;;;55.90;37.10;;;;;;;;;;4954206;28;20322;-76
2021/09/23 07:01:43;;;;;;;65.60;40.90;;;;;;;;;;4963267;28;20266;-76
2021/09/23 07:04:08;;;;;;;58.03;38.50;;;;;;;;;;4958756;28;20232;-75
2021/09/23 07:06:36;;;;;;;53.87;35.67;;;;;;;;;;4962468;28;20185;-76
2021/09/23 07:09:02;;;;;;;50.90;35.87;;;;;;;;;;4956873;28;20207;-75
2021/09/23 07:11:27;;;;;;;50.93;34.73;;;;;;;;;;4961901;28;20979;-76
2021/09/23 07:13:52;;;;;;;46.10;32.53;;;;;;;;;;4959124;28;20293;-75
2021/09/23 07:16:18;;;;;;;52.30;35.50;;;;;;;;;;4961609;28;20221;-74
2021/09/23 07:18:44;;;;;;;49.53;34.80;;;;;;;;;;4959391;28;20246;-76
2021/09/23 07:21:09;;;;;;;50.67;33.97;;;;;;;;;;4955946;28;20473;-75
2021/09/23 07:23:35;;;;;;;47.67;33.27;;;;;;;;;;4959620;28;20194;-75
2021/09/23 07:26:00;;;;;;;48.80;33.07;;;;;;;;;;4951558;28;20182;-75
2021/09/23 07:28:25;;;;;;;49.13;30.00;;;;;;;;;;4955828;28;20229;-76
2021/09/23 07:30:51;;;;;;;47.47;31.03;;;;;;;;;;4958405;28;20185;-76
2021/09/23 07:33:16;;;;;;;46.90;31.47;;;;;;;;;;4955918;28;20213;-76
2021/09/23 07:35:41;;;;;;;42.67;29.80;;;;;;;;;;4958070;28;20190;-75
2021/09/23 07:38:07;;;;;;;48.50;30.90;;;;;;;;;;4956640;28;20271;-75
2021/09/23 07:40:32;;;;;;;47.83;32.17;;;;;;;;;;4958747;28;20179;-76
2021/09/23 07:42:57;;;;;;;39.70;27.63;;;;;;;;;;4959171;28;20195;-75
2021/09/23 07:45:22;;;;;;;32.20;23.93;;;;;;;;;;4952632;28;20186;-72
2021/09/23 07:47:48;;;;;;;36.90;25.67;;;;;;;;;;4956879;28;20199;-73
2021/09/23 07:50:14;;;;;;;42.33;25.63;;;;;;;;;;4958165;28;20214;-72
2021/09/23 07:52:40;;;;;;;34.90;25.53;;;;;;;;;;4959897;28;20289;-75
2021/09/23 07:55:05;;;;;;;37.30;24.50;;;;;;;;;;4956481;28;20592;-75
2021/09/23 07:57:34;;;;;;;29.47;22.33;;;;;;;;;;4958758;28;20214;-72
2021/09/23 07:59:59;;;;;;;32.33;22.23;;;;;;;;;;4958423;28;20215;-73
2021/09/23 08:02:25;;;;;;;22.93;19.03;;;;;;;;;;4958689;28;20536;-72
2021/09/23 08:04:50;;;;;;;24.43;18.20;;;;;;;;;;4960902;28;20175;-72
2021/09/23 08:07:17;;;;;;;26.73;17.30;;;;;;;;;;4955992;28;20619;-73
2021/09/23 08:09:43;;;;;;;23.80;17.80;;;;;;;;;;4956163;28;20186;-72
2021/09/23 08:12:09;;;;;;;23.60;17.10;;;;;;;;;;4953183;28;20433;-72
2021/09/23 08:14:35;;;;;;;28.57;18.40;;;;;;;;;;4955541;28;21622;-74
2021/09/23 08:17:00;;;;;;;28.17;17.30;;;;;;;;;;4955645;28;20179;-72
2021/09/23 08:19:25;;;;;;;26.50;16.77;;;;;;;;;;4954652;28;20218;-72
2021/09/23 08:21:50;;;;;;;22.03;15.67;;;;;;;;;;4957179;28;20178;-72
2021/09/23 08:24:16;;;;;;;22.20;16.30;;;;;;;;;;4959107;28;20179;-73
2021/09/23 08:26:41;;;;;;;24.40;14.43;;;;;;;;;;4954771;28;20225;-72
2021/09/23 08:29:06;;;;;;;18.37;11.47;;;;;;;;;;4956747;28;20241;-73
2021/09/23 08:31:31;;;;;;;11.57;9.50;;;;;;;;;;4954914;28;20180;-72
2021/09/23 08:33:57;;;;;;;13.40;9.23;;;;;;;;;;4957687;28;20230;-72
2021/09/23 08:36:22;;;;;;;14.77;8.00;;;;;;;;;;4958606;28;20182;-72
2021/09/23 08:38:47;;;;;;;9.67;6.57;;;;;;;;;;4955300;28;20255;-72
2021/09/23 08:41:13;;;;;;;11.47;5.77;;;;;;;;;;4954957;28;20177;-72
2021/09/23 08:43:39;;;;;;;6.57;4.50;;;;;;;;;;4949684;28;20220;-72
2021/09/23 08:46:04;;;;;;;7.77;4.30;;;;;;;;;;4947765;28;20517;-74
2021/09/23 08:48:30;;;;;;;5.60;3.30;;;;;;;;;;4950881;28;20195;-72
2021/09/23 08:50:55;;;;;;;7.23;2.80;;;;;;;;;;4952557;28;20198;-74
2021/09/23 08:53:21;;;;;;;9.70;3.17;;;;;;;;;;4957601;28;20240;-71
2021/09/23 08:55:46;;;;;;;6.27;2.60;;;;;;;;;;4955564;28;20727;-74
2021/09/23 08:58:11;;;;;;;4.03;2.37;;;;;;;;;;4952737;28;20246;-72
2021/09/23 09:00:40;;;;;;;5.70;2.20;;;;;;;;;;4952426;28;20194;-72
2021/09/23 09:03:06;;;;;;;6.87;2.80;;;;;;;;;;4954163;28;20734;-76
2021/09/23 09:05:32;;;;;;;3.27;2.30;;;;;;;;;;4951554;28;20452;-72
2021/09/23 09:08:00;;;;;;;8.70;3.30;;;;;;;;;;4956320;28;20457;-72
2021/09/23 09:10:26;;;;;;;5.73;2.27;;;;;;;;;;4960668;28;20210;-72
2021/09/23 09:12:51;;;;;;;5.17;2.50;;;;;;;;;;4958684;28;20442;-72
2021/09/23 09:15:17;;;;;;;3.03;2.53;;;;;;;;;;4957272;28;20242;-73
2021/09/23 09:17:45;;;;;;;3.00;2.00;;;;;;;;;;4956963;28;20984;-74
2021/09/23 09:20:10;;;;;;;3.10;2.07;;;;;;;;;;4961888;28;20445;-75
2021/09/23 09:22:36;;;;;;;6.27;2.20;;;;;;;;;;4959510;28;20433;-72
2021/09/23 09:25:09;;;;;;;3.10;2.13;;;;;;;;;;4956677;28;20190;-72
2021/09/23 09:27:37;;;;;;;8.13;1.90;;;;;;;;;;4959087;28;20454;-75
2021/09/23 09:30:12;;;;;;;4.87;2.07;;;;;;;;;;4957924;28;20530;-73
2021/09/23 09:32:37;;;;;;;8.80;3.00;;;;;;;;;;4960761;28;20903;-72
2021/09/23 09:35:04;;;;;;;6.77;1.97;;;;;;;;;;4964935;28;20440;-72
2021/09/23 09:37:32;;;;;;;5.73;1.63;;;;;;;;;;4958702;28;20619;-72
2021/09/23 09:40:00;;;;;;;5.37;2.10;;;;;;;;;;4958888;28;20477;-73
2021/09/23 09:42:28;;;;;;;5.43;1.90;;;;;;;;;;4958728;28;20433;-72
2021/09/23 09:44:56;;;;;;;5.77;1.97;;;;;;;;;;4957341;28;20446;-73
2021/09/23 09:47:29;;;;;;;4.27;2.00;;;;;;;;;;4959964;28;20434;-72
2021/09/23 09:49:55;;;;;;;5.50;2.40;;;;;;;;;;4962402;28;20923;-72
2021/09/23 09:52:28;;;;;;;5.93;2.20;;;;;;;;;;4961299;28;20445;-76
2021/09/23 09:55:07;;;;;;;4.67;1.93;;;;;;;;;;4958958;28;20690;-73
2021/09/23 09:57:32;;;;;;;4.87;1.80;;;;;;;;;;4962689;28;20458;-74
2021/09/23 09:59:59;;;;;;;6.33;2.00;;;;;;;;;;4957762;28;20485;-73
2021/09/23 10:02:26;;;;;;;3.30;1.93;;;;;;;;;;4957492;28;20176;-73
2021/09/23 10:04:53;;;;;;;9.33;2.70;;;;;;;;;;4958479;28;20444;-73
2021/09/23 10:07:18;;;;;;;5.77;2.40;;;;;;;;;;4957700;28;20430;-73
2021/09/23 10:09:46;;;;;;;4.13;1.83;;;;;;;;;;4962439;28;20514;-72
2021/09/23 10:12:11;;;;;;;6.37;2.17;;;;;;;;;;4957253;28;20191;-72
2021/09/23 10:14:37;;;;;;;8.27;2.13;;;;;;;;;;4963019;28;20439;-72
2021/09/23 10:17:03;;;;;;;9.07;1.97;;;;;;;;;;4957488;28;20202;-72
2021/09/23 10:19:28;;;;;;;10.43;2.17;;;;;;;;;;4962199;28;20274;-74
2021/09/23 10:21:54;;;;;;;5.83;1.80;;;;;;;;;;4962794;28;20230;-71
2021/09/23 10:24:19;;;;;;;8.70;2.00;;;;;;;;;;4958161;28;20240;-72
2021/09/23 10:26:47;;;;;;;9.30;2.23;;;;;;;;;;4959705;28;20176;-71
2021/09/23 10:29:13;;;;;;;6.83;2.60;;;;;;;;;;4959510;28;20250;-72
2021/09/23 10:31:38;;;;;;;6.30;2.70;;;;;;;;;;4963918;28;20474;-73
2021/09/23 10:34:05;;;;;;;7.40;1.97;;;;;;;;;;4960984;28;20435;-72
2021/09/23 10:36:31;;;;;;;15.80;3.10;;;;;;;;;;4960627;28;20285;-72
2021/09/23 10:38:57;;;;;;;11.37;3.00;;;;;;;;;;4957611;28;20506;-73
2021/09/23 10:41:24;;;;;;;6.23;1.80;;;;;;;;;;4959661;28;20489;-73
2021/09/23 10:43:50;;;;;;;7.00;2.30;;;;;;;;;;4963279;28;20722;-72
2021/09/23 10:46:15;;;;;;;8.97;3.20;;;;;;;;;;4961909;28;20524;-77
2021/09/23 10:48:40;;;;;;;8.23;2.13;;;;;;;;;;4961569;28;20206;-73
2021/09/23 10:51:07;;;;;;;8.60;2.40;;;;;;;;;;4961360;28;20606;-71
2021/09/23 10:53:33;;;;;;;9.03;2.70;;;;;;;;;;4959315;28;20556;-73
2021/09/23 10:56:00;;;;;;;8.80;2.03;;;;;;;;;;4962628;28;20437;-72
2021/09/23 10:58:26;;;;;;;14.60;2.33;;;;;;;;;;4958618;28;20480;-72
2021/09/23 11:00:52;;;;;;;6.47;2.03;;;;;;;;;;4957314;28;20525;-75
2021/09/23 11:03:17;;;;;;;11.13;2.73;;;;;;;;;;4962094;28;20662;-73
2021/09/23 11:05:43;;;;;;;10.07;2.37;;;;;;;;;;4955916;28;20183;-73
2021/09/23 11:08:10;;;;;;;7.83;2.60;;;;;;;;;;4955313;28;20213;-73
2021/09/23 11:10:42;;;;;;;11.20;3.00;;;;;;;;;;4961082;28;20452;-72
2021/09/23 11:13:09;;;;;;;7.77;3.33;;;;;;;;;;4952196;28;20801;-72
2021/09/23 11:15:35;;;;;;;10.60;2.40;;;;;;;;;;4956717;28;20435;-72
2021/09/23 11:18:01;;;;;;;15.30;2.87;;;;;;;;;;4957944;28;20556;-71
2021/09/23 11:20:27;;;;;;;13.83;2.50;;;;;;;;;;4953202;28;20528;-71
2021/09/23 11:22:58;;;;;;;5.70;2.70;;;;;;;;;;4954696;28;20539;-72
2021/09/23 11:25:25;;;;;;;8.10;3.10;;;;;;;;;;4955486;28;20436;-71
2021/09/23 11:27:51;;;;;;;9.60;2.90;;;;;;;;;;4954007;28;20480;-71
2021/09/23 11:30:17;;;;;;;9.83;2.70;;;;;;;;;;4957158;28;20446;-73
2021/09/23 11:32:53;;;;;;;11.60;3.10;;;;;;;;;;4959212;28;20198;-72
2021/09/23 11:35:20;;;;;;;7.67;2.70;;;;;;;;;;4958105;28;20437;-72
2021/09/23 11:37:45;;;;;;;6.70;2.50;;;;;;;;;;4950287;28;20455;-73
2021/09/23 11:40:12;;;;;;;7.07;2.80;;;;;;;;;;4955135;28;20441;-72
2021/09/23 11:42:43;;;;;;;11.80;2.40;;;;;;;;;;4957960;28;20568;-73
2021/09/23 11:45:16;;;;;;;11.23;2.60;;;;;;;;;;4955326;28;20529;-74
2021/09/23 11:47:51;;;;;;;9.60;2.67;;;;;;;;;;4957113;28;20465;-73
2021/09/23 11:50:35;;;;;;;7.60;2.40;;;;;;;;;;4955713;28;20513;-72
2021/09/23 11:53:03;;;;;;;6.60;2.57;;;;;;;;;;4958180;28;20431;-72
2021/09/23 11:55:29;;;;;;;16.57;3.30;;;;;;;;;;4958852;28;20437;-73
2021/09/23 11:58:04;;;;;;;10.33;2.83;;;;;;;;;;4956617;28;21178;-72
2021/09/23 12:00:30;;;;;;;12.20;3.10;;;;;;;;;;4955085;28;20604;-73
2021/09/23 12:02:55;;;;;;;9.80;3.03;;;;;;;;;;4955941;28;20442;-73
2021/09/23 12:05:24;;;;;;;8.60;2.50;;;;;;;;;;4954741;28;20431;-73
2021/09/23 12:07:49;;;;;;;7.00;2.20;;;;;;;;;;4958949;28;20199;-75
2021/09/23 12:10:15;;;;;;;10.20;3.20;;;;;;;;;;4961926;28;20442;-75
2021/09/23 12:12:40;;;;;;;9.87;2.60;;;;;;;;;;4958784;28;20179;-73
2021/09/23 12:15:05;;;;;;;13.83;2.87;;;;;;;;;;4956132;28;20182;-73
2021/09/23 12:17:31;;;;;;;11.50;3.43;;;;;;;;;;4954085;28;20245;-73
2021/09/23 12:19:57;;;;;;;12.13;2.17;;;;;;;;;;4955726;28;20214;-72
2021/09/23 12:22:26;;;;;;;7.07;2.50;;;;;;;;;;4957236;28;20202;-72
2021/09/23 12:24:52;;;;;;;5.40;1.80;;;;;;;;;;4951278;28;20442;-71
2021/09/23 12:27:17;;;;;;;8.07;2.30;;;;;;;;;;4953189;28;20504;-71
2021/09/23 12:29:43;;;;;;;8.47;1.87;;;;;;;;;;4952923;28;20226;-72
2021/09/23 12:32:09;;;;;;;9.70;2.47;;;;;;;;;;4956066;28;20754;-72
2021/09/23 12:34:40;;;;;;;9.70;2.00;;;;;;;;;;4954021;28;20558;-71
2021/09/23 12:37:06;;;;;;;9.03;2.60;;;;;;;;;;4949973;28;20455;-74
2021/09/23 12:39:35;;;;;;;3.37;2.10;;;;;;;;;;4957872;28;20822;-72
2021/09/23 12:42:02;;;;;;;6.57;2.13;;;;;;;;;;4956898;28;20178;-72
2021/09/23 12:44:29;;;;;;;5.67;1.77;;;;;;;;;;4954992;23;21085;-71
2021/09/23 12:47:04;;;;;;;9.07;2.07;;;;;;;;;;4929285;29;20451;-71
2021/09/23 12:49:30;;;;;;;7.50;2.13;;;;;;;;;;4928088;29;20443;-71
2021/09/23 12:52:09;;;;;;;6.23;2.00;;;;;;;;;;4928815;29;20447;-71
2021/09/23 12:54:34;;;;;;;7.27;2.20;;;;;;;;;;4930420;29;20216;-72
2021/09/23 12:57:03;;;;;;;17.83;2.33;;;;;;;;;;4931127;29;20436;-69
2021/09/23 12:59:29;;;;;;;3.87;1.70;;;;;;;;;;4928311;29;20559;-71
2021/09/23 13:02:15;;;;;;;7.13;2.00;;;;;;;;;;4928501;29;20901;-71
2021/09/23 13:04:41;;;;;;;6.03;2.07;;;;;;;;;;4925882;29;20463;-69
2021/09/23 13:07:19;;;;;;;7.03;1.90;;;;;;;;;;4926373;29;20565;-70
2021/09/23 13:10:13;;;;;;;4.63;2.20;;;;;;;;;;4929589;29;20184;-73
2021/09/23 13:12:40;;;;;;;10.23;2.40;;;;;;;;;;4933188;29;20475;-73
2021/09/23 13:15:21;;;;;;;7.20;2.80;;;;;;;;;;4928475;29;20447;-71
2021/09/23 13:18:03;;;;;;;7.30;1.80;;;;;;;;;;4927248;29;20434;-71
2021/09/23 13:20:29;;;;;;;12.33;2.47;;;;;;;;;;4927872;29;20432;-72
2021/09/23 13:22:56;;;;;;;10.30;2.10;;;;;;;;;;4926457;29;20478;-71
2021/09/23 13:25:21;;;;;;;7.63;1.80;;;;;;;;;;4931415;29;20473;-71
2021/09/23 13:27:46;;;;;;;9.20;2.40;;;;;;;;;;4930000;29;20531;-73
2021/09/23 13:30:14;;;;;;;7.47;2.30;;;;;;;;;;4925823;29;20191;-73
2021/09/23 13:32:40;;;;;;;8.47;2.17;;;;;;;;;;4928337;29;20188;-71
2021/09/23 13:35:06;;;;;;;5.17;1.73;;;;;;;;;;4929758;29;20458;-71
2021/09/23 13:37:31;;;;;;;13.07;2.60;;;;;;;;;;4931241;29;20188;-72
2021/09/23 13:39:56;;;;;;;10.57;2.30;;;;;;;;;;4927555;29;20525;-72
2021/09/23 13:42:22;;;;;;;7.53;2.47;;;;;;;;;;4927162;29;20280;-72
2021/09/23 13:44:47;;;;;;;12.30;2.43;;;;;;;;;;4929926;29;20276;-70
2021/09/23 13:47:12;;;;;;;6.40;2.40;;;;;;;;;;4928637;29;20191;-72
2021/09/23 13:49:43;;;;;;;6.07;2.30;;;;;;;;;;4923631;29;20198;-71
2021/09/23 13:52:09;;;;;;;7.73;2.33;;;;;;;;;;4928525;29;20218;-73
2021/09/23 13:54:35;;;;;;;7.13;2.70;;;;;;;;;;4927242;29;20502;-72
2021/09/23 13:57:00;;;;;;;14.43;4.10;;;;;;;;;;4928517;29;20248;-71
2021/09/23 13:59:26;;;;;;;12.27;3.40;;;;;;;;;;4925159;29;20211;-71
2021/09/23 14:01:51;;;;;;;10.40;2.63;;;;;;;;;;4929963;29;20450;-71
2021/09/23 14:04:16;;;;;;;10.90;3.90;;;;;;;;;;4931662;29;20554;-69
2021/09/23 14:06:41;;;;;;;13.03;3.30;;;;;;;;;;4926364;29;20615;-71
2021/09/23 14:09:10;;;;;;;13.73;2.97;;;;;;;;;;4931548;29;20188;-73
2021/09/23 14:11:38;;;;;;;23.63;3.43;;;;;;;;;;4929212;29;20180;-72
2021/09/23 14:14:03;;;;;;;14.13;2.70;;;;;;;;;;4926150;29;20459;-71
2021/09/23 14:16:29;;;;;;;11.90;2.90;;;;;;;;;;4925489;29;20829;-73
2021/09/23 14:18:54;;;;;;;9.57;2.73;;;;;;;;;;4927628;29;20215;-73
2021/09/23 14:21:19;;;;;;;9.53;3.10;;;;;;;;;;4933925;29;20187;-71
2021/09/23 14:23:45;;;;;;;8.03;2.83;;;;;;;;;;4932624;29;20196;-71
2021/09/23 14:26:10;;;;;;;11.47;3.07;;;;;;;;;;4932111;29;20192;-75
2021/09/23 14:28:36;;;;;;;8.13;2.40;;;;;;;;;;4934158;29;20194;-72